Ballantine, Montana
Current Conditions -  °F | °C
As of 6:53 PM on Friday 24 Oct 2014 (Local Time) from KBIL Reporting Station
Broken Clouds Broken Clouds  
Wind Chill: 53°   Ceiling: 14000
Heat Index: 53°   Visibility: 10mi
Dew Point: 37°   Wind: 5mph
Humidity: 55%   Direction: 50°NE
Pressure: 30.09"   Gusts: NA
Location:  45.95°N, 108.15°W
Report Text: KBIL 250053Z 05004KT 10SM SCT100 BKN140 12/03 A3009 RMK AO2 SLP184 T01170028
Loading
Personal Weather Stations






























Interactive Weather Map
Tropical Storm Tracking
New forecast layout! Learn more

10-Day Weather Forecast

Advertisements
Track Severe Weather on mobile